Main page
METAR-TAF:

METAR-TAF

Airports :

King Abdulaziz Air Base

Dhahran, Saudi Arabia

latitude: 26-16N, longitude: 050-09E, elevation: 26 m

Current weather observation

The report was made 25 minutes ago, at 06:00 UTC
Wind 14 kt from the West/Northwest
Temperature 18°C
Humidity 34%
Pressure 1021 hPa
Visibility 10 km or more
no clouds below 1500 m and no cumulonimbus

METAR: OEDR 220600Z 30014KT CAVOK 18/02 Q1021

Time: 09:25 (06:25 UTC)

Forecast

The report was made 3 hours and 25 minutes ago, at 03:00 UTC
Forecast valid from 22 at 06 UTC to 23 at 12 UTC
Wind 10 kt from the West/Northwest
Visibility 10 km or more
no clouds below 1500 m and no cumulonimbus

TAF: OEDR 220300Z 2206/2312 30010KT CAVOK

Weather observations and forecasts of more than 4000 airports (METAR and TAF reports).

The available stations are represented by yellow and red dots on the map.

Hover mouse over dot to see the name of the station.

Then click to see weather observations and forecasts.

To change the map : click on the green buttons with a black cross to zoom in, on the green button with a dash to zoom out, or on the green arrows for adjacent maps.


METAR-TAF: